Time,TemperatureF,DewpointF,PressureIn,WindDirection,WindDirectionDegrees,WindSpeedMPH,WindSpeedGustMPH,Humidity,HourlyPrecipIn,Conditions,Clouds,dailyrainin,SoftwareType,DateUTC
2013-03-02 00:03:00,56.6,48.0,29.98,West,262,1.0,1.0,74,0.00,,,0.00,weatherlink.com 1.10,2013-03-02 05:03:00,
2013-03-02 00:18:00,56.5,48.0,29.97,SW,231,0.0,2.0,73,0.00,,,0.00,weatherlink.com 1.10,2013-03-02 05:18:00,
2013-03-02 00:33:00,56.7,47.0,29.97,SW,232,1.0,4.0,71,0.00,,,0.00,weatherlink.com 1.10,2013-03-02 05:33:00,
2013-03-02 00:49:00,56.9,47.0,29.97,SW,229,1.0,5.0,69,0.00,,,0.00,weatherlink.com 1.10,2013-03-02 05:49:00,
2013-03-02 01:04:00,56.8,45.0,29.97,WSW,253,0.0,6.0,64,0.00,,,0.00,weatherlink.com 1.10,2013-03-02 06:04:00,
2013-03-02 01:19:00,56.5,44.0,29.97,WSW,256,2.0,6.0,64,0.00,,,0.00,weatherlink.com 1.10,2013-03-02 06:19:00,
2013-03-02 01:34:00,56.2,45.0,29.98,SW,224,0.0,6.0,66,0.00,,,0.00,weatherlink.com 1.10,2013-03-02 06:34:00,
2013-03-02 01:49:00,55.8,43.0,29.98,WNW,294,1.0,4.0,62,0.00,,,0.00,weatherlink.com 1.10,2013-03-02 06:49:00,
2013-03-02 02:04:00,55.5,42.0,29.97,NE,56,0.0,5.0,62,0.00,,,0.00,weatherlink.com 1.10,2013-03-02 07:04:00,
2013-03-02 02:19:00,55.3,42.0,29.97,WSW,249,0.0,5.0,62,0.00,,,0.00,weatherlink.com 1.10,2013-03-02 07:19:00,
2013-03-02 02:34:00,55.1,42.0,29.97,SW,232,2.0,4.0,62,0.00,,,0.00,weatherlink.com 1.10,2013-03-02 07:34:00,
2013-03-02 02:49:00,54.8,42.0,29.96,SW,219,0.0,7.0,63,0.00,,,0.00,weatherlink.com 1.10,2013-03-02 07:49:00,
2013-03-02 03:04:00,54.5,43.0,29.96,West,264,0.0,5.0,65,0.00,,,0.00,weatherlink.com 1.10,2013-03-02 08:04:00,
2013-03-02 03:19:00,54.2,43.0,29.97,WNW,294,2.0,5.0,66,0.00,,,0.00,weatherlink.com 1.10,2013-03-02 08:19:00,
2013-03-02 03:34:00,54.2,43.0,29.97,SW,236,0.0,5.0,66,0.00,,,0.00,weatherlink.com 1.10,2013-03-02 08:34:00,
2013-03-02 03:49:00,54.3,43.0,29.97,West,278,0.0,4.0,67,0.00,,,0.00,weatherlink.com 1.10,2013-03-02 08:49:00,
2013-03-02 04:04:00,54.2,44.0,29.96,WSW,255,1.0,4.0,68,0.00,,,0.00,weatherlink.com 1.10,2013-03-02 09:04:00,
2013-03-02 04:19:00,54.2,44.0,29.97,West,264,1.0,3.0,69,0.00,,,0.00,weatherlink.com 1.10,2013-03-02 09:19:00,
2013-03-02 04:34:00,54.1,44.0,29.98,SW,235,3.0,5.0,69,0.00,,,0.00,weatherlink.com 1.10,2013-03-02 09:34:00,
2013-03-02 04:49:00,54.0,44.0,29.97,SSW,211,1.0,4.0,70,0.00,,,0.00,weatherlink.com 1.10,2013-03-02 09:49:00,
2013-03-02 05:04:00,53.9,44.0,29.98,WSW,255,1.0,5.0,70,0.00,,,0.00,weatherlink.com 1.10,2013-03-02 10:04:00,
2013-03-02 05:19:00,53.8,44.0,29.99,WSW,243,0.0,8.0,70,0.00,,,0.00,weatherlink.com 1.10,2013-03-02 10:19:00,
2013-03-02 05:34:00,53.8,44.0,29.99,WNW,285,4.0,4.0,70,0.00,,,0.00,weatherlink.com 1.10,2013-03-02 10:34:00,
2013-03-02 05:49:00,53.7,44.0,29.99,SW,232,0.0,7.0,70,0.00,,,0.00,weatherlink.com 1.10,2013-03-02 10:49:00,
2013-03-02 06:04:00,53.5,44.0,30.00,SW,236,0.0,13.0,70,0.00,,,0.00,weatherlink.com 1.10,2013-03-02 11:04:00,
2013-03-02 06:19:00,53.3,44.0,30.01,WSW,238,0.0,6.0,71,0.00,,,0.00,weatherlink.com 1.10,2013-03-02 11:19:00,
2013-03-02 06:34:00,53.3,44.0,30.01,SW,228,7.0,7.0,70,0.00,,,0.00,weatherlink.com 1.10,2013-03-02 11:34:00,
2013-03-02 06:49:00,52.9,41.0,30.02,WSW,239,3.0,7.0,65,0.00,,,0.00,weatherlink.com 1.10,2013-03-02 11:49:00,
2013-03-02 07:04:00,52.8,41.0,30.02,WSW,248,1.0,4.0,65,0.00,,,0.00,weatherlink.com 1.10,2013-03-02 12:04:00,
2013-03-02 07:19:00,53.0,41.0,30.02,WNW,291,1.0,5.0,65,0.00,,,0.00,weatherlink.com 1.10,2013-03-02 12:19:00,
2013-03-02 07:34:00,53.0,41.0,30.03,WSW,255,1.0,4.0,64,0.00,,,0.00,weatherlink.com 1.10,2013-03-02 12:34:00,
2013-03-02 07:49:00,53.2,39.0,30.03,SW,226,1.0,4.0,60,0.00,,,0.00,weatherlink.com 1.10,2013-03-02 12:49:00,
2013-03-02 08:04:00,53.2,37.0,30.03,SSW,204,0.0,8.0,54,0.00,,,0.00,weatherlink.com 1.10,2013-03-02 13:04:00,
2013-03-02 08:19:00,53.3,37.0,30.03,WSW,243,0.0,4.0,55,0.00,,,0.00,weatherlink.com 1.10,2013-03-02 13:19:00,
2013-03-02 08:34:00,53.6,38.0,30.03,North,8,2.0,4.0,56,0.00,,,0.00,weatherlink.com 1.10,2013-03-02 13:34:00,
2013-03-02 08:49:00,54.4,37.0,30.02,WSW,248,1.0,5.0,53,0.00,,,0.00,weatherlink.com 1.10,2013-03-02 13:49:00,
2013-03-02 09:04:00,54.9,37.0,30.02,SW,232,0.0,3.0,52,0.00,,,0.00,weatherlink.com 1.10,2013-03-02 14:04:00,
2013-03-02 09:19:00,56.3,38.0,30.02,West,281,0.0,5.0,51,0.00,,,0.00,weatherlink.com 1.10,2013-03-02 14:19:00,
2013-03-02 09:34:00,58.7,38.0,30.02,South,186,0.0,4.0,47,0.00,,,0.00,weatherlink.com 1.10,2013-03-02 14:34:00,
2013-03-02 09:50:00,60.5,39.0,30.02,SW,219,2.0,6.0,46,0.00,,,0.00,weatherlink.com 1.10,2013-03-02 14:50:00,
2013-03-02 10:05:00,60.3,37.0,30.03,SW,218,0.0,4.0,43,0.00,,,0.00,weatherlink.com 1.10,2013-03-02 15:05:00,
2013-03-02 10:20:00,61.5,37.0,30.03,South,180,0.0,5.0,41,0.00,,,0.00,weatherlink.com 1.10,2013-03-02 15:20:00,
2013-03-02 10:35:00,62.1,37.0,30.02,SSE,156,0.0,4.0,39,0.00,,,0.00,weatherlink.com 1.10,2013-03-02 15:35:00,
2013-03-02 10:50:00,62.4,39.0,30.03,WSW,238,0.0,4.0,42,0.00,,,0.00,weatherlink.com 1.10,2013-03-02 15:50:00,
2013-03-02 11:05:00,63.4,39.0,30.02,WSW,258,0.0,3.0,40,0.00,,,0.00,weatherlink.com 1.10,2013-03-02 16:05:00,
2013-03-02 11:20:00,63.5,37.0,30.02,WSW,257,0.0,5.0,38,0.00,,,0.00,weatherlink.com 1.10,2013-03-02 16:20:00,
2013-03-02 11:35:00,66.2,40.0,30.02,WSW,258,1.0,5.0,38,0.00,,,0.00,weatherlink.com 1.10,2013-03-02 16:35:00,
2013-03-02 11:50:00,65.5,38.0,30.01,WSW,239,1.0,7.0,36,0.00,,,0.00,weatherlink.com 1.10,2013-03-02 16:50:00,
2013-03-02 12:05:00,66.2,41.0,30.01,SW,236,1.0,7.0,40,0.00,,,0.00,weatherlink.com 1.10,2013-03-02 17:05:00,
2013-03-02 12:20:00,67.0,41.0,30.00,SW,233,2.0,7.0,39,0.00,,,0.00,weatherlink.com 1.10,2013-03-02 17:20:00,
2013-03-02 12:35:00,67.4,41.0,29.99,West,269,2.0,9.0,39,0.00,,,0.00,weatherlink.com 1.10,2013-03-02 17:35:00,
2013-03-02 12:50:00,67.2,40.0,29.98,West,260,1.0,10.0,37,0.00,,,0.00,weatherlink.com 1.10,2013-03-02 17:50:00,
2013-03-02 13:05:00,67.1,41.0,29.97,South,185,6.0,8.0,39,0.00,,,0.00,weatherlink.com 1.10,2013-03-02 18:05:00,
2013-03-02 13:20:00,66.8,42.0,29.97,SW,226,5.0,12.0,40,0.00,,,0.00,weatherlink.com 1.10,2013-03-02 18:20:00,
2013-03-02 13:35:00,66.9,42.0,29.97,South,181,1.0,8.0,40,0.00,,,0.00,weatherlink.com 1.10,2013-03-02 18:35:00,
2013-03-02 13:50:00,67.2,42.0,29.97,NNW,340,1.0,7.0,40,0.00,,,0.00,weatherlink.com 1.10,2013-03-02 18:50:00,
2013-03-02 14:05:00,67.0,41.0,29.97,WSW,256,2.0,11.0,39,0.00,,,0.00,weatherlink.com 1.10,2013-03-02 19:05:00,
2013-03-02 14:20:00,65.9,41.0,29.97,SW,222,1.0,10.0,40,0.00,,,0.00,weatherlink.com 1.10,2013-03-02 19:20:00,
2013-03-02 14:35:00,65.5,41.0,29.97,SW,224,3.0,7.0,41,0.00,,,0.00,weatherlink.com 1.10,2013-03-02 19:35:00,
2013-03-02 14:50:00,65.2,41.0,29.96,WSW,249,1.0,7.0,41,0.00,,,0.00,weatherlink.com 1.10,2013-03-02 19:50:00,
2013-03-02 15:05:00,65.9,42.0,29.97,NW,314,1.0,7.0,42,0.00,,,0.00,weatherlink.com 1.10,2013-03-02 20:05:00,
2013-03-02 15:20:00,64.1,41.0,29.97,SW,236,3.0,7.0,43,0.00,,,0.00,weatherlink.com 1.10,2013-03-02 20:20:00,
2013-03-02 15:35:00,63.9,40.0,29.98,West,276,1.0,5.0,42,0.00,,,0.00,weatherlink.com 1.10,2013-03-02 20:35:00,
2013-03-02 15:50:00,62.6,41.0,29.98,WSW,246,3.0,9.0,45,0.00,,,0.00,weatherlink.com 1.10,2013-03-02 20:50:00,
2013-03-02 16:05:00,61.7,41.0,29.97,SSE,152,0.0,4.0,47,0.00,,,0.00,weatherlink.com 1.10,2013-03-02 21:05:00,
2013-03-02 16:20:00,62.1,42.0,29.97,SW,229,1.0,4.0,48,0.00,,,0.00,weatherlink.com 1.10,2013-03-02 21:20:00,
2013-03-02 16:35:00,61.5,43.0,29.97,WSW,249,0.0,7.0,50,0.00,,,0.00,weatherlink.com 1.10,2013-03-02 21:35:00,
2013-03-02 16:50:00,60.9,42.0,29.97,WSW,255,1.0,5.0,51,0.00,,,0.00,weatherlink.com 1.10,2013-03-02 21:50:00,
2013-03-02 17:05:00,60.6,42.0,29.97,WSW,252,1.0,10.0,50,0.00,,,0.00,weatherlink.com 1.10,2013-03-02 22:05:00,
2013-03-02 17:20:00,59.5,41.0,29.98,SW,226,0.0,5.0,50,0.00,,,0.00,weatherlink.com 1.10,2013-03-02 22:20:00,
2013-03-02 17:35:00,58.6,40.0,29.98,WSW,245,1.0,6.0,51,0.00,,,0.00,weatherlink.com 1.10,2013-03-02 22:35:00,
2013-03-02 17:51:00,58.2,40.0,29.99,SW,226,1.0,6.0,52,0.00,,,0.00,weatherlink.com 1.10,2013-03-02 22:51:00,
2013-03-02 18:05:00,57.9,40.0,29.99,West,266,0.0,4.0,52,0.00,,,0.00,weatherlink.com 1.10,2013-03-02 23:05:00,
2013-03-02 18:20:00,57.5,40.0,30.00,WSW,255,0.0,4.0,53,0.00,,,0.00,weatherlink.com 1.10,2013-03-02 23:20:00,
2013-03-02 18:35:00,57.0,40.0,30.00,SSW,207,0.0,4.0,54,0.00,,,0.00,weatherlink.com 1.10,2013-03-02 23:35:00,
2013-03-02 18:50:00,56.5,40.0,30.00,WSW,242,0.0,2.0,55,0.00,,,0.00,weatherlink.com 1.10,2013-03-02 23:50:00,
2013-03-02 19:05:00,56.1,41.0,30.01,WSW,248,0.0,1.0,57,0.00,,,0.00,weatherlink.com 1.10,2013-03-03 00:05:00,
2013-03-02 19:20:00,55.5,41.0,30.01,SW,225,0.0,1.0,59,0.00,,,0.00,weatherlink.com 1.10,2013-03-03 00:20:00,
2013-03-02 19:35:00,54.8,41.0,30.02,WSW,249,0.0,1.0,60,0.00,,,0.00,weatherlink.com 1.10,2013-03-03 00:35:00,
2013-03-02 19:50:00,54.2,42.0,30.02,West,263,0.0,0.0,63,0.00,,,0.00,weatherlink.com 1.10,2013-03-03 00:50:00,
2013-03-02 20:05:00,53.6,42.0,30.02,WSW,248,0.0,1.0,64,0.00,,,0.00,weatherlink.com 1.10,2013-03-03 01:05:00,
2013-03-02 20:20:00,53.4,42.0,30.02,SW,229,0.0,1.0,65,0.00,,,0.00,weatherlink.com 1.10,2013-03-03 01:20:00,
2013-03-02 20:35:00,53.4,42.0,30.02,SW,226,0.0,0.0,65,0.00,,,0.00,weatherlink.com 1.10,2013-03-03 01:35:00,
2013-03-02 20:50:00,53.2,42.0,30.03,SW,226,0.0,0.0,66,0.00,,,0.00,weatherlink.com 1.10,2013-03-03 01:50:00,
2013-03-02 21:05:00,52.9,42.0,30.03,SW,226,0.0,0.0,67,0.00,,,0.00,weatherlink.com 1.10,2013-03-03 02:05:00,
2013-03-02 21:20:00,52.5,42.0,30.04,WSW,250,0.0,0.0,68,0.00,,,0.00,weatherlink.com 1.10,2013-03-03 02:20:00,
2013-03-02 21:35:00,52.4,42.0,30.04,WSW,243,1.0,1.0,67,0.00,,,0.00,weatherlink.com 1.10,2013-03-03 02:35:00,
2013-03-02 21:50:00,52.3,40.0,30.04,SSW,203,0.0,3.0,64,0.00,,,0.00,weatherlink.com 1.10,2013-03-03 02:50:00,
2013-03-02 22:05:00,51.9,40.0,30.04,West,280,0.0,1.0,64,0.00,,,0.00,weatherlink.com 1.10,2013-03-03 03:05:00,
2013-03-02 22:20:00,51.4,40.0,30.04,WSW,255,0.0,2.0,65,0.00,,,0.00,weatherlink.com 1.10,2013-03-03 03:20:00,
2013-03-02 22:36:00,51.1,40.0,30.04,SW,215,0.0,2.0,65,0.00,,,0.00,weatherlink.com 1.10,2013-03-03 03:36:00,
2013-03-02 22:51:00,51.0,40.0,30.03,SSW,203,0.0,2.0,66,0.00,,,0.00,weatherlink.com 1.10,2013-03-03 03:51:00,
2013-03-02 23:06:00,50.6,39.0,30.03,SSW,212,0.0,1.0,65,0.00,,,0.00,weatherlink.com 1.10,2013-03-03 04:06:00,
2013-03-02 23:21:00,50.6,39.0,30.04,West,267,0.0,3.0,65,0.00,,,0.00,weatherlink.com 1.10,2013-03-03 04:21:00,
2013-03-02 23:36:00,50.5,39.0,30.03,WSW,248,0.0,4.0,64,0.00,,,0.00,weatherlink.com 1.10,2013-03-03 04:36:00,
2013-03-02 23:51:00,50.4,39.0,30.02,SSW,205,0.0,2.0,66,0.00,,,0.00,weatherlink.com 1.10,2013-03-03 04:51:00,